Time;durP1;ratioP1;P1;durP2;ratioP2;P2;SDS_P1;SDS_P2;PMS_P1;PMS_P2;Temp;Humidity;BMP_temperature;BMP_pressure;BME280_temperature;BME280_humidity;BME280_pressure;Samples;Min_cycle;Max_cycle;Signal;HPM_P1;HPM_P2
2021/08/10 00:00:58;;;;;;;9.80;5.88;;;;;;;;;;10282316;28;20045;-54
2021/08/10 00:05:56;;;;;;;7.43;5.18;;;;;;;;;;10282468;28;20087;-50
2021/08/10 00:10:54;;;;;;;7.28;4.70;;;;;;;;;;10282250;28;20064;-53
2021/08/10 00:15:53;;;;;;;7.15;4.25;;;;;;;;;;10281224;28;20049;-55
2021/08/10 00:20:53;;;;;;;7.22;3.80;;;;;;;;;;10281947;28;20080;-52
2021/08/10 00:25:51;;;;;;;4.07;3.15;;;;;;;;;;10281428;28;20081;-53
2021/08/10 00:30:50;;;;;;;3.35;3.05;;;;;;;;;;10280834;28;20079;-48
2021/08/10 00:35:48;;;;;;;3.60;3.30;;;;;;;;;;10280804;28;20478;-51
2021/08/10 00:40:48;;;;;;;4.40;3.83;;;;;;;;;;10279596;28;20049;-53
2021/08/10 00:45:47;;;;;;;5.10;3.35;;;;;;;;;;10278743;28;20056;-51
2021/08/10 00:50:46;;;;;;;3.88;3.47;;;;;;;;;;10280821;28;20084;-54
2021/08/10 00:55:48;;;;;;;7.28;3.28;;;;;;;;;;10279273;28;20057;-54
2021/08/10 01:00:50;;;;;;;5.60;3.30;;;;;;;;;;10280139;28;20501;-55
2021/08/10 01:05:49;;;;;;;6.68;4.00;;;;;;;;;;10279438;28;20049;-52
2021/08/10 01:10:57;;;;;;;6.13;3.60;;;;;;;;;;10278577;28;20048;-54
2021/08/10 01:16:00;;;;;;;4.18;3.17;;;;;;;;;;10278617;28;20525;-55
2021/08/10 01:21:10;;;;;;;5.57;3.38;;;;;;;;;;10278796;28;20049;-53
2021/08/10 01:26:23;;;;;;;6.82;3.83;;;;;;;;;;10277970;28;20118;-54
2021/08/10 01:31:25;;;;;;;6.88;4.00;;;;;;;;;;10277963;28;20071;-54
2021/08/10 01:36:30;;;;;;;12.15;3.85;;;;;;;;;;10277239;28;20227;-54
2021/08/10 01:41:30;;;;;;;5.55;3.38;;;;;;;;;;10276609;28;20410;-53
2021/08/10 01:46:31;;;;;;;3.85;3.08;;;;;;;;;;10276437;28;20049;-56
2021/08/10 01:51:33;;;;;;;4.60;3.70;;;;;;;;;;10276929;28;20052;-58
2021/08/10 01:56:33;;;;;;;6.60;4.05;;;;;;;;;;10276418;28;20067;-53
2021/08/10 02:01:35;;;;;;;7.13;4.13;;;;;;;;;;10276107;28;20430;-56
2021/08/10 02:06:34;;;;;;;3.88;3.42;;;;;;;;;;10276182;28;20049;-56
2021/08/10 02:11:36;;;;;;;8.48;3.60;;;;;;;;;;10275590;28;20510;-56
2021/08/10 02:16:42;;;;;;;5.82;3.90;;;;;;;;;;10276056;28;20481;-55
2021/08/10 02:21:47;;;;;;;5.22;3.53;;;;;;;;;;10275569;28;20045;-56
2021/08/10 02:26:47;;;;;;;5.72;3.70;;;;;;;;;;10275245;28;20071;-53
2021/08/10 02:31:50;;;;;;;4.43;3.63;;;;;;;;;;10275373;28;20049;-53
2021/08/10 02:36:53;;;;;;;3.85;3.22;;;;;;;;;;10275247;28;20052;-56
2021/08/10 02:41:52;;;;;;;5.13;3.13;;;;;;;;;;10275118;28;20049;-55
2021/08/10 02:46:53;;;;;;;5.55;3.70;;;;;;;;;;10274711;28;20107;-55
2021/08/10 02:51:51;;;;;;;10.45;3.78;;;;;;;;;;10273688;28;20049;-56
2021/08/10 02:56:54;;;;;;;8.32;4.15;;;;;;;;;;10276039;28;20064;-55
2021/08/10 03:01:59;;;;;;;9.15;3.47;;;;;;;;;;10283109;28;20355;-55
2021/08/10 03:06:59;;;;;;;6.15;3.83;;;;;;;;;;10283311;28;20524;-56
2021/08/10 03:11:58;;;;;;;8.57;4.15;;;;;;;;;;10296223;28;20517;-55
2021/08/10 03:16:59;;;;;;;4.65;3.65;;;;;;;;;;10286204;28;20068;-56
2021/08/10 03:21:59;;;;;;;10.27;4.47;;;;;;;;;;10305726;28;20053;-55
2021/08/10 03:26:59;;;;;;;10.38;4.55;;;;;;;;;;10296498;28;20084;-56
2021/08/10 03:32:00;;;;;;;6.38;4.85;;;;;;;;;;10302073;28;20497;-58
2021/08/10 03:36:59;;;;;;;7.40;4.43;;;;;;;;;;10298183;28;20076;-57
2021/08/10 03:42:00;;;;;;;6.65;3.63;;;;;;;;;;10310424;28;20084;-58
2021/08/10 03:47:00;;;;;;;7.20;4.10;;;;;;;;;;10309709;28;20103;-58
2021/08/10 03:51:59;;;;;;;7.53;4.82;;;;;;;;;;10309887;28;20138;-59
2021/08/10 03:56:58;;;;;;;4.55;4.05;;;;;;;;;;10312241;28;20055;-58
2021/08/10 04:02:02;;;;;;;5.95;4.40;;;;;;;;;;10314061;28;20052;-58
2021/08/10 04:07:03;;;;;;;9.00;3.97;;;;;;;;;;10321329;28;20048;-59
2021/08/10 04:12:04;;;;;;;6.68;3.88;;;;;;;;;;10322913;28;20500;-59
2021/08/10 04:17:07;;;;;;;11.32;4.72;;;;;;;;;;10321193;28;20064;-59
2021/08/10 04:22:10;;;;;;;5.07;3.97;;;;;;;;;;10322815;28;20390;-58
2021/08/10 04:27:11;;;;;;;13.80;4.88;;;;;;;;;;10319972;28;20043;-58
2021/08/10 04:32:11;;;;;;;12.93;11.40;;;;;;;;;;10320328;28;20052;-58
2021/08/10 04:37:12;;;;;;;7.53;5.45;;;;;;;;;;10320039;28;20055;-58
2021/08/10 04:42:13;;;;;;;12.30;4.82;;;;;;;;;;10319714;28;20053;-60
2021/08/10 04:47:13;;;;;;;9.00;5.60;;;;;;;;;;10319830;28;20075;-59
2021/08/10 04:52:20;;;;;;;9.07;5.57;;;;;;;;;;10315551;28;20492;-60
2021/08/10 04:57:18;;;;;;;6.93;4.07;;;;;;;;;;10315305;28;20080;-60
2021/08/10 05:02:19;;;;;;;8.07;5.10;;;;;;;;;;10317152;28;20084;-59
2021/08/10 05:07:19;;;;;;;5.85;4.85;;;;;;;;;;10319352;28;20049;-59
2021/08/10 05:12:18;;;;;;;6.50;5.07;;;;;;;;;;10320910;28;20452;-59
2021/08/10 05:17:18;;;;;;;11.30;5.13;;;;;;;;;;10319827;28;20146;-60
2021/08/10 05:22:17;;;;;;;7.00;5.30;;;;;;;;;;10318691;28;20052;-59
2021/08/10 05:27:18;;;;;;;9.38;5.38;;;;;;;;;;10318602;28;20044;-59
2021/08/10 05:32:18;;;;;;;10.98;5.18;;;;;;;;;;10318145;28;20056;-60
2021/08/10 05:37:17;;;;;;;8.98;5.30;;;;;;;;;;10317835;28;20052;-60
2021/08/10 05:42:16;;;;;;;9.73;5.53;;;;;;;;;;10317862;28;20055;-59
2021/08/10 05:47:14;;;;;;;10.30;6.18;;;;;;;;;;10319329;28;20529;-60
2021/08/10 05:52:15;;;;;;;10.45;5.38;;;;;;;;;;10316804;28;20052;-60
2021/08/10 05:57:13;;;;;;;13.40;5.97;;;;;;;;;;10317056;28;20394;-60
2021/08/10 06:02:12;;;;;;;13.15;6.28;;;;;;;;;;10316984;28;20441;-59
2021/08/10 06:07:10;;;;;;;8.15;4.97;;;;;;;;;;10316043;28;20056;-60
2021/08/10 06:12:12;;;;;;;7.18;5.65;;;;;;;;;;10317154;28;20059;-60
2021/08/10 06:17:11;;;;;;;11.88;6.22;;;;;;;;;;10316378;28;20420;-59
2021/08/10 06:22:11;;;;;;;6.35;4.75;;;;;;;;;;10316436;28;20044;-61
2021/08/10 06:27:10;;;;;;;13.20;6.30;;;;;;;;;;10315885;28;20055;-59
2021/08/10 06:32:12;;;;;;;12.80;6.18;;;;;;;;;;10316044;28;20497;-59
2021/08/10 06:37:13;;;;;;;10.82;5.68;;;;;;;;;;10315745;28;20049;-59
2021/08/10 06:42:11;;;;;;;9.15;5.97;;;;;;;;;;10317589;28;20060;-60
2021/08/10 06:47:16;;;;;;;13.65;6.88;;;;;;;;;;10315914;28;20045;-60
2021/08/10 06:52:14;;;;;;;10.43;5.47;;;;;;;;;;10315644;28;20048;-59
2021/08/10 06:57:13;;;;;;;7.68;5.32;;;;;;;;;;10315169;28;20044;-58
2021/08/10 07:02:12;;;;;;;8.02;6.05;;;;;;;;;;10315131;28;20041;-60
2021/08/10 07:07:12;;;;;;;11.45;6.93;;;;;;;;;;10315905;28;20453;-59
2021/08/10 07:12:14;;;;;;;8.02;5.18;;;;;;;;;;10314932;28;20092;-59
2021/08/10 07:17:15;;;;;;;15.30;5.05;;;;;;;;;;10314925;28;20052;-59
2021/08/10 07:22:15;;;;;;;11.43;5.43;;;;;;;;;;10314966;28;20508;-59
2021/08/10 07:27:31;;;;;;;6.88;5.85;;;;;;;;;;10314773;28;20059;-59
2021/08/10 07:32:30;;;;;;;8.00;4.97;;;;;;;;;;10314402;28;20060;-59
2021/08/10 07:37:30;;;;;;;5.75;5.15;;;;;;;;;;10314911;28;20053;-59
2021/08/10 07:42:30;;;;;;;5.88;4.90;;;;;;;;;;10324440;28;20071;-58
2021/08/10 07:47:29;;;;;;;20.50;6.43;;;;;;;;;;10324076;28;20052;-59
2021/08/10 07:52:27;;;;;;;7.90;4.47;;;;;;;;;;10323755;28;20083;-59
2021/08/10 07:57:27;;;;;;;10.27;4.70;;;;;;;;;;10321710;28;20056;-59
2021/08/10 08:02:26;;;;;;;5.10;4.53;;;;;;;;;;10321685;28;20048;-59
2021/08/10 08:07:26;;;;;;;11.13;5.00;;;;;;;;;;10320622;28;20505;-59
2021/08/10 08:12:24;;;;;;;10.63;4.45;;;;;;;;;;10321254;28;20056;-59
2021/08/10 08:17:25;;;;;;;12.88;4.28;;;;;;;;;;10320944;28;20489;-59
2021/08/10 08:22:44;;;;;;;6.60;5.38;;;;;;;;;;10320886;28;20506;-60
2021/08/10 08:27:43;;;;;;;5.90;4.82;;;;;;;;;;10320723;28;20068;-59
2021/08/10 08:32:44;;;;;;;8.48;4.30;;;;;;;;;;10320237;28;20045;-59
2021/08/10 08:37:45;;;;;;;6.93;4.68;;;;;;;;;;10320255;28;20067;-59
2021/08/10 08:42:43;;;;;;;10.07;4.65;;;;;;;;;;10320258;28;20132;-60
2021/08/10 08:47:48;;;;;;;7.70;4.63;;;;;;;;;;10320106;28;20508;-59
2021/08/10 08:52:51;;;;;;;10.90;4.82;;;;;;;;;;10318303;28;20053;-60
2021/08/10 08:57:50;;;;;;;10.05;4.05;;;;;;;;;;10319556;28;20060;-60
2021/08/10 09:02:49;;;;;;;10.32;4.90;;;;;;;;;;10319328;28;20507;-60
2021/08/10 09:07:55;;;;;;;46.25;7.60;;;;;;;;;;10319541;28;20313;-60
2021/08/10 09:12:54;;;;;;;13.07;4.78;;;;;;;;;;10319232;28;20048;-60
2021/08/10 09:17:53;;;;;;;7.13;4.43;;;;;;;;;;10319168;28;20317;-60
2021/08/10 09:22:55;;;;;;;5.03;4.28;;;;;;;;;;10319188;28;20045;-60
2021/08/10 09:28:09;;;;;;;6.05;4.72;;;;;;;;;;10318527;28;20100;-60
2021/08/10 09:33:15;;;;;;;9.05;4.45;;;;;;;;;;10318432;28;20058;-61
2021/08/10 09:38:21;;;;;;;10.15;5.75;;;;;;;;;;10318133;28;20088;-60
2021/08/10 09:43:24;;;;;;;13.10;5.25;;;;;;;;;;10317335;28;20060;-60
2021/08/10 09:48:24;;;;;;;8.50;4.03;;;;;;;;;;10317097;28;20059;-60
2021/08/10 09:53:25;;;;;;;9.70;4.70;;;;;;;;;;10317272;28;20052;-59
2021/08/10 09:58:23;;;;;;;6.88;5.97;;;;;;;;;;10316845;28;20505;-59
2021/08/10 10:03:23;;;;;;;6.40;3.72;;;;;;;;;;10317060;28;20052;-59
2021/08/10 10:08:35;;;;;;;8.27;4.03;;;;;;;;;;10315907;28;20048;-59
2021/08/10 10:13:35;;;;;;;6.68;4.30;;;;;;;;;;10316559;28;20055;-59
2021/08/10 10:18:34;;;;;;;8.32;3.88;;;;;;;;;;10317482;28;20424;-60
2021/08/10 10:23:32;;;;;;;7.05;4.57;;;;;;;;;;10317074;28;20045;-60
2021/08/10 10:28:33;;;;;;;11.93;5.53;;;;;;;;;;10317140;28;20048;-59
2021/08/10 10:33:32;;;;;;;10.75;4.95;;;;;;;;;;10316510;28;20040;-59
2021/08/10 10:38:30;;;;;;;7.28;4.97;;;;;;;;;;10316826;28;20044;-60
2021/08/10 10:43:29;;;;;;;11.25;5.15;;;;;;;;;;10316678;28;20068;-60
2021/08/10 10:48:47;;;;;;;22.38;15.38;;;;;;;;;;10316987;28;20075;-60
2021/08/10 10:53:46;;;;;;;14.95;7.28;;;;;;;;;;10316202;28;20080;-60
2021/08/10 10:58:45;;;;;;;10.98;6.10;;;;;;;;;;10316219;28;20052;-62
2021/08/10 11:04:07;;;;;;;22.05;12.65;;;;;;;;;;10316243;28;20045;-63
2021/08/10 11:09:05;;;;;;;12.68;9.32;;;;;;;;;;10316176;28;20516;-60
2021/08/10 11:14:04;;;;;;;12.13;6.20;;;;;;;;;;10315603;28;20075;-59
2021/08/10 11:19:17;;;;;;;9.63;5.43;;;;;;;;;;10315495;28;20036;-60
2021/08/10 11:24:30;;;;;;;9.60;4.47;;;;;;;;;;10316293;28;20071;-60
2021/08/10 11:29:28;;;;;;;;;;;;;;;;;;10316091;28;20048;-60
2021/08/10 11:34:35;;;;;;;5.53;3.90;;;;;;;;;;10315738;28;19959;-60
2021/08/10 11:39:54;;;;;;;19.27;9.50;;;;;;;;;;10315674;28;20048;-60
2021/08/10 11:44:55;;;;;;;8.48;5.50;;;;;;;;;;10315983;28;20075;-60
2021/08/10 11:49:55;;;;;;;10.32;4.85;;;;;;;;;;10315276;28;20045;-60
2021/08/10 11:54:57;;;;;;;7.57;4.25;;;;;;;;;;10315382;28;20048;-58
2021/08/10 12:00:11;;;;;;;6.65;4.43;;;;;;;;;;10315056;28;20048;-59
2021/08/10 12:05:11;;;;;;;10.73;5.85;;;;;;;;;;10314903;28;20365;-59
2021/08/10 12:10:10;;;;;;;10.55;5.43;;;;;;;;;;10314897;28;20409;-60
2021/08/10 12:15:09;;;;;;;5.13;3.88;;;;;;;;;;10314896;28;20048;-60
2021/08/10 12:20:13;;;;;;;7.47;4.55;;;;;;;;;;10314174;28;20052;-61
2021/08/10 12:25:11;;;;;;;8.20;4.43;;;;;;;;;;10317862;28;20370;-60
2021/08/10 12:30:14;;;;;;;7.25;4.18;;;;;;;;;;10322525;28;20510;-60
2021/08/10 12:35:20;;;;;;;5.93;4.03;;;;;;;;;;10321625;28;20052;-60
2021/08/10 12:40:21;;;;;;;6.60;4.18;;;;;;;;;;10321622;28;20041;-60
2021/08/10 12:45:19;;;;;;;8.13;4.30;;;;;;;;;;10321667;28;20516;-60
2021/08/10 12:50:25;;;;;;;5.65;3.30;;;;;;;;;;10321139;28;20302;-61
2021/08/10 12:55:24;;;;;;;6.82;3.58;;;;;;;;;;10321114;28;20044;-60
2021/08/10 13:00:22;;;;;;;6.35;2.88;;;;;;;;;;10321170;28;20045;-60
2021/08/10 13:05:22;;;;;;;4.85;3.15;;;;;;;;;;10321286;28;20040;-60
2021/08/10 13:10:28;;;;;;;4.25;3.85;;;;;;;;;;10320787;28;20041;-59
2021/08/10 13:15:26;;;;;;;7.22;4.40;;;;;;;;;;10320856;28;20044;-60
2021/08/10 13:20:26;;;;;;;5.68;3.85;;;;;;;;;;10319992;28;20429;-60
2021/08/10 13:25:26;;;;;;;5.22;4.72;;;;;;;;;;10319777;28;20048;-60
2021/08/10 13:30:26;;;;;;;5.90;4.57;;;;;;;;;;10319753;28;20076;-60
2021/08/10 13:35:24;;;;;;;6.25;4.18;;;;;;;;;;10318398;28;20071;-60
2021/08/10 13:40:23;;;;;;;5.55;3.60;;;;;;;;;;10319255;28;20473;-60
2021/08/10 13:45:25;;;;;;;6.53;4.68;;;;;;;;;;10318268;28;20044;-60
2021/08/10 13:50:24;;;;;;;6.43;4.20;;;;;;;;;;10319231;28;20504;-61
2021/08/10 13:55:22;;;;;;;11.20;4.05;;;;;;;;;;10318485;28;20083;-60
2021/08/10 14:00:20;;;;;;;6.63;4.15;;;;;;;;;;10318416;28;20387;-60
2021/08/10 14:05:20;;;;;;;7.72;6.97;;;;;;;;;;10318237;28;20517;-61
2021/08/10 14:10:18;;;;;;;4.97;4.15;;;;;;;;;;10317976;28;20429;-60
2021/08/10 14:15:17;;;;;;;6.80;4.13;;;;;;;;;;10317969;28;20087;-60
2021/08/10 14:20:15;;;;;;;8.88;7.82;;;;;;;;;;10318018;28;20052;-60
2021/08/10 14:25:15;;;;;;;10.02;6.28;;;;;;;;;;10316560;28;20086;-59
2021/08/10 14:30:13;;;;;;;20.92;18.55;;;;;;;;;;10288694;28;20107;-55
2021/08/10 14:35:12;;;;;;;15.75;11.65;;;;;;;;;;10289214;28;20561;-58
2021/08/10 14:40:10;;;;;;;7.95;4.85;;;;;;;;;;10280747;28;20080;-59
2021/08/10 14:45:10;;;;;;;20.98;12.07;;;;;;;;;;10286833;28;20069;-59
2021/08/10 14:50:10;;;;;;;7.65;4.70;;;;;;;;;;10289418;28;20037;-58
2021/08/10 14:55:09;;;;;;;11.63;5.20;;;;;;;;;;10294753;28;20067;-59
2021/08/10 15:00:08;;;;;;;6.97;4.75;;;;;;;;;;10294452;28;20089;-58
2021/08/10 15:05:08;;;;;;;4.72;4.25;;;;;;;;;;10286259;28;20087;-59
2021/08/10 15:10:09;;;;;;;10.27;8.60;;;;;;;;;;10294103;28;20048;-59
2021/08/10 15:15:09;;;;;;;6.88;4.25;;;;;;;;;;10294227;28;20083;-59
2021/08/10 15:20:10;;;;;;;7.45;4.28;;;;;;;;;;10303968;28;20059;-59
2021/08/10 15:25:09;;;;;;;12.10;9.48;;;;;;;;;;10315757;28;20517;-58
2021/08/10 15:30:14;;;;;;;10.20;5.75;;;;;;;;;;10294959;28;20488;-57
2021/08/10 15:35:14;;;;;;;7.95;5.85;;;;;;;;;;10284452;28;20088;-60
2021/08/10 15:40:13;;;;;;;5.55;4.82;;;;;;;;;;10275332;28;20505;-57
2021/08/10 15:45:11;;;;;;;12.45;4.88;;;;;;;;;;10290807;28;20064;-60
2021/08/10 15:50:11;;;;;;;11.55;5.10;;;;;;;;;;10296301;28;20069;-60
2021/08/10 15:55:11;;;;;;;18.55;4.70;;;;;;;;;;10280719;28;20083;-59
2021/08/10 16:00:10;;;;;;;8.38;7.57;;;;;;;;;;10271024;28;20135;-58
2021/08/10 16:05:09;;;;;;;6.85;5.63;;;;;;;;;;10299189;28;20061;-58
2021/08/10 16:10:08;;;;;;;7.43;5.85;;;;;;;;;;10299886;28;20041;-59
2021/08/10 16:15:08;;;;;;;6.60;5.78;;;;;;;;;;10300131;28;20072;-59
2021/08/10 16:20:07;;;;;;;5.90;4.95;;;;;;;;;;10298303;28;20072;-58
2021/08/10 16:25:06;;;;;;;4.72;4.05;;;;;;;;;;10286691;28;20497;-59
2021/08/10 16:30:05;;;;;;;6.75;5.50;;;;;;;;;;10277553;28;20087;-59
2021/08/10 16:35:05;;;;;;;4.75;4.30;;;;;;;;;;10276835;28;20748;-59
2021/08/10 16:40:04;;;;;;;6.28;4.30;;;;;;;;;;10278211;28;20505;-59
2021/08/10 16:45:03;;;;;;;5.05;4.55;;;;;;;;;;10280399;28;20065;-59
2021/08/10 16:50:01;;;;;;;7.53;6.82;;;;;;;;;;10280526;28;20080;-59
2021/08/10 16:55:00;;;;;;;11.90;5.63;;;;;;;;;;10282700;28;20069;-59
2021/08/10 16:59:59;;;;;;;7.00;4.97;;;;;;;;;;10292217;28;20096;-59
2021/08/10 17:04:57;;;;;;;6.32;4.88;;;;;;;;;;10300494;28;20113;-59
2021/08/10 17:09:56;;;;;;;7.07;6.18;;;;;;;;;;10315394;28;20083;-59
2021/08/10 17:14:55;;;;;;;6.45;4.95;;;;;;;;;;10315446;28;20080;-60
2021/08/10 17:19:54;;;;;;;6.53;5.88;;;;;;;;;;10315626;28;20072;-58
2021/08/10 17:24:52;;;;;;;21.20;18.83;;;;;;;;;;10319840;28;20060;-59
2021/08/10 17:29:50;;;;;;;12.93;11.73;;;;;;;;;;10318579;28;20044;-58
2021/08/10 17:34:56;;;;;;;42.50;38.17;;;;;;;;;;10319015;28;20094;-60
2021/08/10 17:39:54;;;;;;;10.57;6.40;;;;;;;;;;10319221;28;20428;-59
2021/08/10 17:44:52;;;;;;;30.35;8.23;;;;;;;;;;10318892;28;20048;-59
2021/08/10 17:49:51;;;;;;;10.48;5.38;;;;;;;;;;10318914;28;20041;-58
2021/08/10 17:54:50;;;;;;;8.20;4.28;;;;;;;;;;10318637;28;20079;-59
2021/08/10 17:59:48;;;;;;;8.45;3.58;;;;;;;;;;10318328;28;20040;-59
2021/08/10 18:04:47;;;;;;;4.10;3.55;;;;;;;;;;10318383;28;20059;-59
2021/08/10 18:09:45;;;;;;;5.47;4.03;;;;;;;;;;10317623;28;20489;-60
2021/08/10 18:14:45;;;;;;;5.90;3.92;;;;;;;;;;10317970;28;20083;-59
2021/08/10 18:19:43;;;;;;;12.95;4.20;;;;;;;;;;10317713;28;20424;-60
2021/08/10 18:24:42;;;;;;;5.43;4.00;;;;;;;;;;10316895;28;20520;-58
2021/08/10 18:29:40;;;;;;;8.23;5.05;;;;;;;;;;10317343;28;20088;-59
2021/08/10 18:34:40;;;;;;;5.15;4.53;;;;;;;;;;10316313;28;20076;-59
2021/08/10 18:39:38;;;;;;;8.23;5.18;;;;;;;;;;10316828;28;20040;-59
2021/08/10 18:44:37;;;;;;;8.85;4.28;;;;;;;;;;10316496;28;20067;-60
2021/08/10 18:49:36;;;;;;;8.77;4.90;;;;;;;;;;10316202;28;20059;-59
2021/08/10 18:54:35;;;;;;;8.82;4.72;;;;;;;;;;10316440;28;20095;-59
2021/08/10 18:59:34;;;;;;;5.95;5.10;;;;;;;;;;10316511;28;20040;-59
2021/08/10 19:04:33;;;;;;;5.95;3.95;;;;;;;;;;10315959;28;20055;-58
2021/08/10 19:09:31;;;;;;;8.18;4.57;;;;;;;;;;10316450;28;20060;-58
2021/08/10 19:14:31;;;;;;;6.97;4.25;;;;;;;;;;10315740;28;20080;-60
2021/08/10 19:19:29;;;;;;;9.75;4.03;;;;;;;;;;10315841;28;20079;-60
2021/08/10 19:24:27;;;;;;;5.82;3.88;;;;;;;;;;10315824;28;20040;-59
2021/08/10 19:29:26;;;;;;;8.75;4.40;;;;;;;;;;10315692;28;20079;-60
2021/08/10 19:34:25;;;;;;;5.97;3.63;;;;;;;;;;10316994;28;20091;-59
2021/08/10 19:39:24;;;;;;;5.20;3.92;;;;;;;;;;10323843;28;20072;-59
2021/08/10 19:44:22;;;;;;;6.80;4.32;;;;;;;;;;10323400;28;20072;-59
2021/08/10 19:49:20;;;;;;;4.57;4.18;;;;;;;;;;10323270;28;20052;-60
2021/08/10 19:54:22;;;;;;;8.13;4.20;;;;;;;;;;10323580;28;20083;-59
2021/08/10 19:59:20;;;;;;;9.60;4.03;;;;;;;;;;10322954;28;20036;-59
2021/08/10 20:04:19;;;;;;;6.68;3.97;;;;;;;;;;10322623;28;20041;-59
2021/08/10 20:09:17;;;;;;;4.30;3.90;;;;;;;;;;10322700;28;20072;-59
2021/08/10 20:14:17;;;;;;;4.63;3.67;;;;;;;;;;10322386;28;20071;-59
2021/08/10 20:19:15;;;;;;;9.55;3.85;;;;;;;;;;10322329;28;20607;-59
2021/08/10 20:24:13;;;;;;;5.03;3.80;;;;;;;;;;10294384;28;20068;-59
2021/08/10 20:29:14;;;;;;;4.50;3.72;;;;;;;;;;10304648;28;20079;-60
2021/08/10 20:34:15;;;;;;;6.38;4.32;;;;;;;;;;10311953;28;20080;-58
2021/08/10 20:39:13;;;;;;;7.20;4.60;;;;;;;;;;10279123;28;20056;-57
2021/08/10 20:44:12;;;;;;;7.93;5.00;;;;;;;;;;10280870;28;20036;-58
2021/08/10 20:49:10;;;;;;;9.23;4.97;;;;;;;;;;10280547;28;20073;-57
2021/08/10 20:54:11;;;;;;;5.80;4.57;;;;;;;;;;10279001;28;20080;-56
2021/08/10 20:59:10;;;;;;;7.82;4.97;;;;;;;;;;10278969;28;20048;-48
2021/08/10 21:04:08;;;;;;;5.85;4.70;;;;;;;;;;10278897;28;20131;-58
2021/08/10 21:09:07;;;;;;;7.13;4.63;;;;;;;;;;10279660;28;20308;-48
2021/08/10 21:14:08;;;;;;;6.40;5.03;;;;;;;;;;10279318;28;20084;-49
2021/08/10 21:19:07;;;;;;;7.85;4.20;;;;;;;;;;10279762;28;20056;-49
2021/08/10 21:24:05;;;;;;;4.90;4.40;;;;;;;;;;10279212;28;20478;-52
2021/08/10 21:29:06;;;;;;;7.93;5.53;;;;;;;;;;10278304;28;20048;-50
2021/08/10 21:34:06;;;;;;;9.38;4.55;;;;;;;;;;10278623;28;20300;-51
2021/08/10 21:39:04;;;;;;;5.28;4.72;;;;;;;;;;10278488;28;20049;-49
2021/08/10 21:44:03;;;;;;;8.43;5.38;;;;;;;;;;10278087;28;20045;-53
2021/08/10 21:49:01;;;;;;;5.97;5.35;;;;;;;;;;10278561;28;20049;-53
2021/08/10 21:54:01;;;;;;;7.13;5.00;;;;;;;;;;10277915;28;20076;-55
2021/08/10 21:58:59;;;;;;;6.57;5.85;;;;;;;;;;10277321;28;20049;-55
2021/08/10 22:03:58;;;;;;;7.00;5.72;;;;;;;;;;10277589;28;20049;-53
2021/08/10 22:08:56;;;;;;;6.97;5.65;;;;;;;;;;10277340;28;20041;-55
2021/08/10 22:13:56;;;;;;;8.70;5.65;;;;;;;;;;10277501;28;20491;-50
2021/08/10 22:18:54;;;;;;;6.30;5.70;;;;;;;;;;10276705;28;20079;-58
2021/08/10 22:23:52;;;;;;;6.63;6.00;;;;;;;;;;10276449;28;20051;-58
2021/08/10 22:28:51;;;;;;;5.93;5.35;;;;;;;;;;10275743;28;20049;-53
2021/08/10 22:33:50;;;;;;;6.70;5.38;;;;;;;;;;10276102;28;20639;-52
2021/08/10 22:38:49;;;;;;;6.90;4.97;;;;;;;;;;10276255;28;20076;-53
2021/08/10 22:43:47;;;;;;;9.77;4.55;;;;;;;;;;10275717;28;20125;-47
2021/08/10 22:48:45;;;;;;;6.40;4.90;;;;;;;;;;10275950;28;20077;-56
2021/08/10 22:53:45;;;;;;;5.13;4.63;;;;;;;;;;10276073;28;20080;-56
2021/08/10 22:58:44;;;;;;;9.00;5.10;;;;;;;;;;10275290;28;20072;-55
2021/08/10 23:03:42;;;;;;;7.53;5.55;;;;;;;;;;10273836;28;20060;-55
2021/08/10 23:08:40;;;;;;;6.47;5.88;;;;;;;;;;10274299;28;20414;-54
2021/08/10 23:13:40;;;;;;;7.22;5.38;;;;;;;;;;10274918;28;20489;-55
2021/08/10 23:18:38;;;;;;;5.72;5.22;;;;;;;;;;10275425;28;20524;-60
2021/08/10 23:23:36;;;;;;;6.40;5.68;;;;;;;;;;10274772;28;20057;-58
2021/08/10 23:28:35;;;;;;;8.20;6.07;;;;;;;;;;10275250;28;20077;-59
2021/08/10 23:33:35;;;;;;;6.22;5.63;;;;;;;;;;10274790;28;20477;-58
2021/08/10 23:38:34;;;;;;;7.03;6.32;;;;;;;;;;10274473;28;20072;-57
2021/08/10 23:43:32;;;;;;;6.85;6.18;;;;;;;;;;10274466;28;20048;-59
2021/08/10 23:48:31;;;;;;;6.95;6.25;;;;;;;;;;10274342;28;20430;-59
2021/08/10 23:53:30;;;;;;;10.40;6.65;;;;;;;;;;10273969;28;20052;-59
2021/08/10 23:58:29;;;;;;;7.03;6.22;;;;;;;;;;10274388;28;20085;-59
